sensor_id;sensor_type;location;lat;lon;timestamp;temperature;humidity
11142;DHT22;5625;50.122;19.864;2023-03-12T03:12:38;7.00;99.90
11142;DHT22;5625;50.122;19.864;2023-03-12T03:15:05;-0.20;99.90
11142;DHT22;5625;50.122;19.864;2023-03-12T03:17:34;-0.40;99.90
11142;DHT22;5625;50.122;19.864;2023-03-12T03:20:03;-0.40;99.90
11142;DHT22;5625;50.122;19.864;2023-03-12T03:22:35;-0.40;99.90
11142;DHT22;5625;50.122;19.864;2023-03-12T03:25:04;-0.40;99.90
11142;DHT22;5625;50.122;19.864;2023-03-12T03:27:33;-0.40;99.90
11142;DHT22;5625;50.122;19.864;2023-03-12T03:30:03;-0.40;99.90
11142;DHT22;5625;50.122;19.864;2023-03-12T03:32:32;-0.40;99.90
11142;DHT22;5625;50.122;19.864;2023-03-12T03:35:00;-0.40;99.90
11142;DHT22;5625;50.122;19.864;2023-03-12T03:37:29;-0.40;99.90
11142;DHT22;5625;50.122;19.864;2023-03-12T03:39:57;-0.40;99.90
11142;DHT22;5625;50.122;19.864;2023-03-12T03:42:25;-0.40;99.90
11142;DHT22;5625;50.122;19.864;2023-03-12T03:44:53;-0.40;99.90
11142;DHT22;5625;50.122;19.864;2023-03-12T03:47:23;-0.40;99.90
11142;DHT22;5625;50.122;19.864;2023-03-12T03:49:50;-0.30;99.90
11142;DHT22;5625;50.122;19.864;2023-03-12T03:52:18;-0.30;99.90
11142;DHT22;5625;50.122;19.864;2023-03-12T03:54:46;-0.30;99.90
11142;DHT22;5625;50.122;19.864;2023-03-12T03:57:15;-0.30;99.90
11142;DHT22;5625;50.122;19.864;2023-03-12T03:59:43;-0.30;99.90
11142;DHT22;5625;50.122;19.864;2023-03-12T04:02:11;-0.30;99.90
11142;DHT22;5625;50.122;19.864;2023-03-12T04:04:40;-0.30;99.90
11142;DHT22;5625;50.122;19.864;2023-03-12T04:07:08;-0.30;99.90
11142;DHT22;5625;50.122;19.864;2023-03-12T04:09:36;-0.30;99.90
11142;DHT22;5625;50.122;19.864;2023-03-12T04:12:04;-0.30;99.90
11142;DHT22;5625;50.122;19.864;2023-03-12T04:14:32;-0.30;99.90
11142;DHT22;5625;50.122;19.864;2023-03-12T04:17:00;-0.30;99.90
11142;DHT22;5625;50.122;19.864;2023-03-12T04:19:29;-0.30;99.90
11142;DHT22;5625;50.122;19.864;2023-03-12T04:21:58;-0.30;99.90
11142;DHT22;5625;50.122;19.864;2023-03-12T04:24:26;-0.30;99.90
11142;DHT22;5625;50.122;19.864;2023-03-12T04:26:56;-0.30;99.90
11142;DHT22;5625;50.122;19.864;2023-03-12T04:29:24;-0.30;99.90
11142;DHT22;5625;50.122;19.864;2023-03-12T04:31:52;-0.30;99.90
11142;DHT22;5625;50.122;19.864;2023-03-12T04:34:20;-0.30;99.90
11142;DHT22;5625;50.122;19.864;2023-03-12T04:36:48;-0.30;99.90
11142;DHT22;5625;50.122;19.864;2023-03-12T04:39:18;-0.30;99.90
11142;DHT22;5625;50.122;19.864;2023-03-12T04:41:47;-0.40;99.90
11142;DHT22;5625;50.122;19.864;2023-03-12T04:44:15;-0.40;99.90
11142;DHT22;5625;50.122;19.864;2023-03-12T04:46:43;-0.40;99.90
11142;DHT22;5625;50.122;19.864;2023-03-12T04:49:11;-0.40;99.90
11142;DHT22;5625;50.122;19.864;2023-03-12T04:51:39;-0.50;99.90
11142;DHT22;5625;50.122;19.864;2023-03-12T04:54:07;-0.50;99.90
11142;DHT22;5625;50.122;19.864;2023-03-12T04:56:36;-0.50;99.90
11142;DHT22;5625;50.122;19.864;2023-03-12T04:59:05;-0.50;99.90
11142;DHT22;5625;50.122;19.864;2023-03-12T05:01:35;-0.50;99.90
11142;DHT22;5625;50.122;19.864;2023-03-12T05:04:03;-0.50;99.90
11142;DHT22;5625;50.122;19.864;2023-03-12T05:06:32;-0.50;99.90
11142;DHT22;5625;50.122;19.864;2023-03-12T05:09:00;-0.50;99.90
11142;DHT22;5625;50.122;19.864;2023-03-12T05:11:29;-0.50;99.90
11142;DHT22;5625;50.122;19.864;2023-03-12T05:13:58;-0.50;99.90
11142;DHT22;5625;50.122;19.864;2023-03-12T05:16:26;-0.50;99.90
11142;DHT22;5625;50.122;19.864;2023-03-12T05:18:55;-0.60;99.90
11142;DHT22;5625;50.122;19.864;2023-03-12T05:21:23;-0.60;99.90
11142;DHT22;5625;50.122;19.864;2023-03-12T05:23:51;-0.60;99.90
11142;DHT22;5625;50.122;19.864;2023-03-12T05:26:21;-0.60;99.90
11142;DHT22;5625;50.122;19.864;2023-03-12T05:28:50;-0.50;99.90
11142;DHT22;5625;50.122;19.864;2023-03-12T05:31:20;-0.60;99.90
11142;DHT22;5625;50.122;19.864;2023-03-12T05:33:49;-0.60;99.90
11142;DHT22;5625;50.122;19.864;2023-03-12T05:36:18;-0.60;99.90
11142;DHT22;5625;50.122;19.864;2023-03-12T05:38:47;-0.50;99.90
11142;DHT22;5625;50.122;19.864;2023-03-12T05:41:18;-0.50;99.90
11142;DHT22;5625;50.122;19.864;2023-03-12T05:43:47;-0.60;99.90
11142;DHT22;5625;50.122;19.864;2023-03-12T05:46:15;-0.50;99.90
11142;DHT22;5625;50.122;19.864;2023-03-12T05:48:45;-0.50;99.90
11142;DHT22;5625;50.122;19.864;2023-03-12T05:51:13;-0.50;99.90
11142;DHT22;5625;50.122;19.864;2023-03-12T05:53:43;-0.50;99.90
11142;DHT22;5625;50.122;19.864;2023-03-12T05:56:15;-0.40;99.90
11142;DHT22;5625;50.122;19.864;2023-03-12T05:58:44;-0.40;99.90
11142;DHT22;5625;50.122;19.864;2023-03-12T06:01:16;-0.40;99.90
11142;DHT22;5625;50.122;19.864;2023-03-12T06:03:46;-0.30;99.90
11142;DHT22;5625;50.122;19.864;2023-03-12T06:06:14;-0.30;99.90
11142;DHT22;5625;50.122;19.864;2023-03-12T06:08:42;-0.20;99.90
11142;DHT22;5625;50.122;19.864;2023-03-12T06:11:11;-0.20;99.90
11142;DHT22;5625;50.122;19.864;2023-03-12T06:13:40;-0.10;99.90
11142;DHT22;5625;50.122;19.864;2023-03-12T06:16:11;-0.10;99.90
11142;DHT22;5625;50.122;19.864;2023-03-12T06:18:42;0.00;99.90
11142;DHT22;5625;50.122;19.864;2023-03-12T06:21:13;0.00;99.90
11142;DHT22;5625;50.122;19.864;2023-03-12T06:23:41;0.00;99.90
11142;DHT22;5625;50.122;19.864;2023-03-12T06:26:10;0.00;99.90
11142;DHT22;5625;50.122;19.864;2023-03-12T06:28:39;0.10;99.90
11142;DHT22;5625;50.122;19.864;2023-03-12T06:31:07;0.20;99.90
11142;DHT22;5625;50.122;19.864;2023-03-12T06:33:35;0.20;99.90
11142;DHT22;5625;50.122;19.864;2023-03-12T06:36:05;0.30;99.90
11142;DHT22;5625;50.122;19.864;2023-03-12T06:38:38;0.30;99.90
11142;DHT22;5625;50.122;19.864;2023-03-12T06:41:08;0.30;99.90
11142;DHT22;5625;50.122;19.864;2023-03-12T06:43:37;0.40;99.90
11142;DHT22;5625;50.122;19.864;2023-03-12T06:46:07;0.50;99.90
11142;DHT22;5625;50.122;19.864;2023-03-12T06:48:35;0.50;99.90
11142;DHT22;5625;50.122;19.864;2023-03-12T06:51:08;0.50;99.90
11142;DHT22;5625;50.122;19.864;2023-03-12T06:53:38;0.50;99.90
11142;DHT22;5625;50.122;19.864;2023-03-12T06:56:08;0.50;99.90
11142;DHT22;5625;50.122;19.864;2023-03-12T06:58:37;0.50;99.90
11142;DHT22;5625;50.122;19.864;2023-03-12T07:01:06;0.50;99.90
11142;DHT22;5625;50.122;19.864;2023-03-12T07:03:36;0.60;99.90
11142;DHT22;5625;50.122;19.864;2023-03-12T07:06:12;0.50;99.90
11142;DHT22;5625;50.122;19.864;2023-03-12T07:08:42;0.60;99.90
11142;DHT22;5625;50.122;19.864;2023-03-12T07:11:11;0.60;99.90
11142;DHT22;5625;50.122;19.864;2023-03-12T07:13:39;0.80;99.90
11142;DHT22;5625;50.122;19.864;2023-03-12T07:16:08;0.90;99.90
11142;DHT22;5625;50.122;19.864;2023-03-12T07:18:36;1.50;99.90
11142;DHT22;5625;50.122;19.864;2023-03-12T07:21:05;2.10;99.90
11142;DHT22;5625;50.122;19.864;2023-03-12T07:23:33;2.40;99.90
11142;DHT22;5625;50.122;19.864;2023-03-12T07:26:04;2.60;99.90
11142;DHT22;5625;50.122;19.864;2023-03-12T07:28:32;3.10;99.90
11142;DHT22;5625;50.122;19.864;2023-03-12T07:31:01;3.30;99.90
11142;DHT22;5625;50.122;19.864;2023-03-12T07:33:29;4.00;99.90
11142;DHT22;5625;50.122;19.864;2023-03-12T07:35:58;5.00;1.00
11142;DHT22;5625;50.122;19.864;2023-03-12T07:38:26;6.00;99.90
11142;DHT22;5625;50.122;19.864;2023-03-12T07:40:56;7.20;90.70
11142;DHT22;5625;50.122;19.864;2023-03-12T07:43:27;7.50;99.90
11142;DHT22;5625;50.122;19.864;2023-03-12T07:45:55;7.10;99.90
11142;DHT22;5625;50.122;19.864;2023-03-12T07:48:23;7.30;99.90
11142;DHT22;5625;50.122;19.864;2023-03-12T07:50:51;7.20;1.00
11142;DHT22;5625;50.122;19.864;2023-03-12T07:53:19;6.90;1.00
11142;DHT22;5625;50.122;19.864;2023-03-12T07:55:48;7.20;99.90
11142;DHT22;5625;50.122;19.864;2023-03-12T07:58:20;7.20;53.10
11142;DHT22;5625;50.122;19.864;2023-03-12T08:00:54;8.00;99.90
11142;DHT22;5625;50.122;19.864;2023-03-12T08:03:22;8.50;99.50
11142;DHT22;5625;50.122;19.864;2023-03-12T08:05:58;8.70;98.50
11142;DHT22;5625;50.122;19.864;2023-03-12T08:08:27;9.30;97.90
11142;DHT22;5625;50.122;19.864;2023-03-12T08:10:55;9.80;97.20
11142;DHT22;5625;50.122;19.864;2023-03-12T08:13:27;10.30;96.50
11142;DHT22;5625;50.122;19.864;2023-03-12T08:15:56;10.10;94.50
11142;DHT22;5625;50.122;19.864;2023-03-12T08:18:25;10.40;94.50
11142;DHT22;5625;50.122;19.864;2023-03-12T08:20:53;10.80;93.10
11142;DHT22;5625;50.122;19.864;2023-03-12T08:23:24;10.80;92.50
11142;DHT22;5625;50.122;19.864;2023-03-12T08:25:52;10.80;92.60
11142;DHT22;5625;50.122;19.864;2023-03-12T08:28:22;10.60;91.30
11142;DHT22;5625;50.122;19.864;2023-03-12T08:30:52;10.60;91.60
11142;DHT22;5625;50.122;19.864;2023-03-12T08:33:22;10.40;91.20
11142;DHT22;5625;50.122;19.864;2023-03-12T08:35:50;10.30;91.80
11142;DHT22;5625;50.122;19.864;2023-03-12T08:38:19;10.80;91.90
11142;DHT22;5625;50.122;19.864;2023-03-12T08:40:54;11.20;91.70
11142;DHT22;5625;50.122;19.864;2023-03-12T08:43:22;11.20;90.40
11142;DHT22;5625;50.122;19.864;2023-03-12T08:45:53;11.30;89.50
11142;DHT22;5625;50.122;19.864;2023-03-12T08:48:23;11.10;88.00
11142;DHT22;5625;50.122;19.864;2023-03-12T08:50:54;11.10;87.60
11142;DHT22;5625;50.122;19.864;2023-03-12T08:53:22;11.00;87.70
11142;DHT22;5625;50.122;19.864;2023-03-12T08:55:51;10.60;86.50
11142;DHT22;5625;50.122;19.864;2023-03-12T08:58:19;10.70;87.30
11142;DHT22;5625;50.122;19.864;2023-03-12T09:00:47;10.80;87.50
11142;DHT22;5625;50.122;19.864;2023-03-12T09:03:16;11.10;87.90
11142;DHT22;5625;50.122;19.864;2023-03-12T09:05:45;10.90;86.60
11142;DHT22;5625;50.122;19.864;2023-03-12T09:08:16;10.70;87.10
11142;DHT22;5625;50.122;19.864;2023-03-12T09:10:47;10.30;86.80
11142;DHT22;5625;50.122;19.864;2023-03-12T09:13:18;10.30;89.70
11142;DHT22;5625;50.122;19.864;2023-03-12T09:15:46;10.30;88.10
11142;DHT22;5625;50.122;19.864;2023-03-12T09:18:14;10.30;89.40
11142;DHT22;5625;50.122;19.864;2023-03-12T09:20:42;10.30;89.00
11142;DHT22;5625;50.122;19.864;2023-03-12T09:23:11;9.80;88.60
11142;DHT22;5625;50.122;19.864;2023-03-12T09:25:39;9.80;90.70
11142;DHT22;5625;50.122;19.864;2023-03-12T09:28:11;10.10;91.10
11142;DHT22;5625;50.122;19.864;2023-03-12T09:30:44;10.30;90.60
11142;DHT22;5625;50.122;19.864;2023-03-12T09:33:13;10.30;91.60
11142;DHT22;5625;50.122;19.864;2023-03-12T09:35:42;10.30;91.30
11142;DHT22;5625;50.122;19.864;2023-03-12T09:38:13;10.40;90.70
11142;DHT22;5625;50.122;19.864;2023-03-12T09:40:45;10.50;90.30
11142;DHT22;5625;50.122;19.864;2023-03-12T09:43:21;10.60;90.70
11142;DHT22;5625;50.122;19.864;2023-03-12T09:45:52;10.60;90.80
11142;DHT22;5625;50.122;19.864;2023-03-12T09:48:30;10.60;91.20
11142;DHT22;5625;50.122;19.864;2023-03-12T09:51:06;10.60;90.70
11142;DHT22;5625;50.122;19.864;2023-03-12T09:53:39;10.80;91.30
11142;DHT22;5625;50.122;19.864;2023-03-12T09:56:14;10.90;92.20
11142;DHT22;5625;50.122;19.864;2023-03-12T09:58:44;11.00;91.90
11142;DHT22;5625;50.122;19.864;2023-03-12T10:01:28;11.10;91.90
11142;DHT22;5625;50.122;19.864;2023-03-12T10:04:23;11.20;91.00
11142;DHT22;5625;50.122;19.864;2023-03-12T10:07:00;11.10;91.90
11142;DHT22;5625;50.122;19.864;2023-03-12T10:09:38;11.00;92.00
11142;DHT22;5625;50.122;19.864;2023-03-12T10:12:16;11.00;91.40
11142;DHT22;5625;50.122;19.864;2023-03-12T10:14:54;10.80;91.00
11142;DHT22;5625;50.122;19.864;2023-03-12T10:17:33;11.10;92.00
11142;DHT22;5625;50.122;19.864;2023-03-12T10:23:07;11.10;90.20
11142;DHT22;5625;50.122;19.864;2023-03-12T10:25:41;11.20;91.30
11142;DHT22;5625;50.122;19.864;2023-03-12T10:28:16;11.10;91.70
11142;DHT22;5625;50.122;19.864;2023-03-12T10:30:49;11.00;91.00
11142;DHT22;5625;50.122;19.864;2023-03-12T10:33:20;11.20;90.80
11142;DHT22;5625;50.122;19.864;2023-03-12T10:35:51;11.30;90.10
11142;DHT22;5625;50.122;19.864;2023-03-12T10:38:24;11.10;90.30
11142;DHT22;5625;50.122;19.864;2023-03-12T10:40:54;11.00;90.20
11142;DHT22;5625;50.122;19.864;2023-03-12T10:43:23;10.70;91.00
11142;DHT22;5625;50.122;19.864;2023-03-12T10:45:58;10.50;91.70
11142;DHT22;5625;50.122;19.864;2023-03-12T10:48:28;10.40;92.20
11142;DHT22;5625;50.122;19.864;2023-03-12T10:51:03;10.10;91.80
11142;DHT22;5625;50.122;19.864;2023-03-12T10:53:32;10.00;99.90
11142;DHT22;5625;50.122;19.864;2023-03-12T10:56:05;9.90;99.90
11142;DHT22;5625;50.122;19.864;2023-03-12T10:58:35;9.60;99.90
11142;DHT22;5625;50.122;19.864;2023-03-12T11:01:06;9.40;99.90
11142;DHT22;5625;50.122;19.864;2023-03-12T11:03:42;9.20;1.00
11142;DHT22;5625;50.122;19.864;2023-03-12T11:06:19;9.10;49.50
11142;DHT22;5625;50.122;19.864;2023-03-12T11:09:02;9.00;1.00
11142;DHT22;5625;50.122;19.864;2023-03-12T11:11:45;8.90;94.30
11142;DHT22;5625;50.122;19.864;2023-03-12T11:14:16;8.90;42.50
11142;DHT22;5625;50.122;19.864;2023-03-12T11:16:45;8.80;99.90
11142;DHT22;5625;50.122;19.864;2023-03-12T11:19:14;8.80;99.90
11142;DHT22;5625;50.122;19.864;2023-03-12T11:21:57;8.80;1.00
11142;DHT22;5625;50.122;19.864;2023-03-12T11:24:26;8.80;99.90
11142;DHT22;5625;50.122;19.864;2023-03-12T11:26:59;8.80;99.90
11142;DHT22;5625;50.122;19.864;2023-03-12T11:29:32;8.80;1.00
11142;DHT22;5625;50.122;19.864;2023-03-12T11:32:13;8.90;99.90
11142;DHT22;5625;50.122;19.864;2023-03-12T11:34:43;8.90;41.40
11142;DHT22;5625;50.122;19.864;2023-03-12T11:37:16;9.00;99.90
11142;DHT22;5625;50.122;19.864;2023-03-12T11:39:57;9.00;1.00
11142;DHT22;5625;50.122;19.864;2023-03-12T11:42:47;9.10;1.00
11142;DHT22;5625;50.122;19.864;2023-03-12T11:45:23;9.30;1.00
11142;DHT22;5625;50.122;19.864;2023-03-12T11:47:58;9.60;1.00
11142;DHT22;5625;50.122;19.864;2023-03-12T11:50:39;9.70;99.90
11142;DHT22;5625;50.122;19.864;2023-03-12T11:53:25;9.80;99.90
11142;DHT22;5625;50.122;19.864;2023-03-12T11:56:06;10.00;1.00
11142;DHT22;5625;50.122;19.864;2023-03-12T11:58:59;10.00;99.90
11142;DHT22;5625;50.122;19.864;2023-03-12T12:01:37;10.00;66.20
11142;DHT22;5625;50.122;19.864;2023-03-12T12:07:31;9.70;99.90
11142;DHT22;5625;50.122;19.864;2023-03-12T12:10:10;9.80;1.00
11142;DHT22;5625;50.122;19.864;2023-03-12T12:12:48;9.60;28.60
11142;DHT22;5625;50.122;19.864;2023-03-12T12:15:32;9.30;1.00
11142;DHT22;5625;50.122;19.864;2023-03-12T12:18:09;9.30;1.00
11142;DHT22;5625;50.122;19.864;2023-03-12T12:20:44;9.00;99.90
11142;DHT22;5625;50.122;19.864;2023-03-12T12:23:17;9.10;99.90
11142;DHT22;5625;50.122;19.864;2023-03-12T12:25:54;8.70;99.90
11142;DHT22;5625;50.122;19.864;2023-03-12T12:28:45;8.80;1.00
11142;DHT22;5625;50.122;19.864;2023-03-12T12:31:29;8.90;99.90
11142;DHT22;5625;50.122;19.864;2023-03-12T12:34:12;8.60;99.90
11142;DHT22;5625;50.122;19.864;2023-03-12T12:36:48;8.40;1.00
11142;DHT22;5625;50.122;19.864;2023-03-12T12:39:22;8.10;99.90
11142;DHT22;5625;50.122;19.864;2023-03-12T12:41:57;7.90;99.90
11142;DHT22;5625;50.122;19.864;2023-03-12T12:44:28;7.80;99.90
11142;DHT22;5625;50.122;19.864;2023-03-12T12:47:02;7.80;93.80
11142;DHT22;5625;50.122;19.864;2023-03-12T12:49:37;8.00;75.70
11142;DHT22;5625;50.122;19.864;2023-03-12T12:52:15;8.00;1.00
11142;DHT22;5625;50.122;19.864;2023-03-12T12:54:50;7.80;1.00
11142;DHT22;5625;50.122;19.864;2023-03-12T12:57:26;7.70;25.60
11142;DHT22;5625;50.122;19.864;2023-03-12T13:00:07;7.70;99.90
11142;DHT22;5625;50.122;19.864;2023-03-12T13:02:43;8.20;99.90
11142;DHT22;5625;50.122;19.864;2023-03-12T13:05:19;8.40;99.90
11142;DHT22;5625;50.122;19.864;2023-03-12T13:07:51;8.40;1.00
11142;DHT22;5625;50.122;19.864;2023-03-12T13:10:41;8.50;79.50
11142;DHT22;5625;50.122;19.864;2023-03-12T13:13:28;8.60;99.90
11142;DHT22;5625;50.122;19.864;2023-03-12T13:16:18;8.40;95.70
11142;DHT22;5625;50.122;19.864;2023-03-12T13:18:59;8.10;99.90
11142;DHT22;5625;50.122;19.864;2023-03-12T13:21:33;7.90;99.90
11142;DHT22;5625;50.122;19.864;2023-03-12T13:24:18;7.90;90.30
11142;DHT22;5625;50.122;19.864;2023-03-12T13:26:52;7.90;1.00
11142;DHT22;5625;50.122;19.864;2023-03-12T13:29:35;7.80;1.00
11142;DHT22;5625;50.122;19.864;2023-03-12T13:32:05;7.70;1.00
11142;DHT22;5625;50.122;19.864;2023-03-12T13:34:46;7.60;1.00
11142;DHT22;5625;50.122;19.864;2023-03-12T13:37:29;7.50;99.90
11142;DHT22;5625;50.122;19.864;2023-03-12T13:40:36;7.40;99.90
11142;DHT22;5625;50.122;19.864;2023-03-12T13:43:10;7.30;97.50
11142;DHT22;5625;50.122;19.864;2023-03-12T13:45:57;7.40;1.00
11142;DHT22;5625;50.122;19.864;2023-03-12T13:48:27;7.40;1.00
11142;DHT22;5625;50.122;19.864;2023-03-12T13:51:00;7.30;1.00
11142;DHT22;5625;50.122;19.864;2023-03-12T13:53:33;7.30;99.90
11142;DHT22;5625;50.122;19.864;2023-03-12T13:56:09;7.20;1.00
11142;DHT22;5625;50.122;19.864;2023-03-12T13:58:41;7.10;99.90
11142;DHT22;5625;50.122;19.864;2023-03-12T14:01:15;7.10;99.90
11142;DHT22;5625;50.122;19.864;2023-03-12T14:03:46;7.00;99.90
11142;DHT22;5625;50.122;19.864;2023-03-12T14:06:19;7.00;99.90
11142;DHT22;5625;50.122;19.864;2023-03-12T14:08:58;6.90;99.90
11142;DHT22;5625;50.122;19.864;2023-03-12T14:11:46;6.90;65.00
11142;DHT22;5625;50.122;19.864;2023-03-12T14:17:18;6.80;99.90
11142;DHT22;5625;50.122;19.864;2023-03-12T14:19:50;6.70;99.90
11142;DHT22;5625;50.122;19.864;2023-03-12T14:22:26;6.70;4.80
11142;DHT22;5625;50.122;19.864;2023-03-12T14:24:58;6.70;99.90
11142;DHT22;5625;50.122;19.864;2023-03-12T14:27:31;6.70;1.00
11142;DHT22;5625;50.122;19.864;2023-03-12T14:30:09;6.70;99.90
11142;DHT22;5625;50.122;19.864;2023-03-12T14:32:39;6.70;28.60
11142;DHT22;5625;50.122;19.864;2023-03-12T14:35:17;6.70;47.90
11142;DHT22;5625;50.122;19.864;2023-03-12T14:37:54;6.70;1.00
11142;DHT22;5625;50.122;19.864;2023-03-12T14:40:27;6.80;99.90
11142;DHT22;5625;50.122;19.864;2023-03-12T14:42:59;6.70;99.50
11142;DHT22;5625;50.122;19.864;2023-03-12T14:45:27;6.60;99.10
11142;DHT22;5625;50.122;19.864;2023-03-12T14:47:56;6.50;98.80
11142;DHT22;5625;50.122;19.864;2023-03-12T14:50:27;6.50;99.10
11142;DHT22;5625;50.122;19.864;2023-03-12T14:53:11;6.50;99.80
11142;DHT22;5625;50.122;19.864;2023-03-12T14:55:39;6.50;99.90
11142;DHT22;5625;50.122;19.864;2023-03-12T14:58:15;6.50;99.90
11142;DHT22;5625;50.122;19.864;2023-03-12T15:00:54;6.50;99.90
11142;DHT22;5625;50.122;19.864;2023-03-12T15:03:24;6.40;99.90
11142;DHT22;5625;50.122;19.864;2023-03-12T15:05:57;6.50;99.90
11142;DHT22;5625;50.122;19.864;2023-03-12T15:08:26;6.50;99.90
11142;DHT22;5625;50.122;19.864;2023-03-12T15:10:56;6.40;99.90
11142;DHT22;5625;50.122;19.864;2023-03-12T15:13:26;6.40;99.90
11142;DHT22;5625;50.122;19.864;2023-03-12T15:15:54;6.40;99.90
11142;DHT22;5625;50.122;19.864;2023-03-12T15:18:25;6.40;99.70
11142;DHT22;5625;50.122;19.864;2023-03-12T15:20:55;6.30;99.00
11142;DHT22;5625;50.122;19.864;2023-03-12T15:23:28;6.30;99.90
11142;DHT22;5625;50.122;19.864;2023-03-12T15:26:12;6.30;99.90
11142;DHT22;5625;50.122;19.864;2023-03-12T15:28:40;6.30;99.90
11142;DHT22;5625;50.122;19.864;2023-03-12T15:31:11;6.30;99.90
11142;DHT22;5625;50.122;19.864;2023-03-12T15:33:41;6.20;99.30
11142;DHT22;5625;50.122;19.864;2023-03-12T15:36:23;6.20;99.00
11142;DHT22;5625;50.122;19.864;2023-03-12T15:38:55;6.20;99.00
11142;DHT22;5625;50.122;19.864;2023-03-12T15:41:27;6.20;99.60
11142;DHT22;5625;50.122;19.864;2023-03-12T15:43:58;6.20;99.50
11142;DHT22;5625;50.122;19.864;2023-03-12T15:46:27;6.20;99.40
11142;DHT22;5625;50.122;19.864;2023-03-12T15:48:57;6.10;99.10
11142;DHT22;5625;50.122;19.864;2023-03-12T15:51:31;6.10;98.70
11142;DHT22;5625;50.122;19.864;2023-03-12T15:54:04;6.10;98.80
11142;DHT22;5625;50.122;19.864;2023-03-12T15:56:34;6.10;99.40
11142;DHT22;5625;50.122;19.864;2023-03-12T15:59:19;6.00;98.70
11142;DHT22;5625;50.122;19.864;2023-03-12T16:01:51;6.00;99.30
11142;DHT22;5625;50.122;19.864;2023-03-12T16:04:20;6.00;99.40
11142;DHT22;5625;50.122;19.864;2023-03-12T16:06:49;6.00;99.90
11142;DHT22;5625;50.122;19.864;2023-03-12T16:09:23;5.90;99.70
11142;DHT22;5625;50.122;19.864;2023-03-12T16:11:54;5.90;99.10
11142;DHT22;5625;50.122;19.864;2023-03-12T16:14:28;5.90;99.70
11142;DHT22;5625;50.122;19.864;2023-03-12T16:16:58;5.90;99.70
11142;DHT22;5625;50.122;19.864;2023-03-12T16:19:31;5.90;99.90
11142;DHT22;5625;50.122;19.864;2023-03-12T16:22:00;5.80;99.90
11142;DHT22;5625;50.122;19.864;2023-03-12T16:24:32;5.80;99.90
11142;DHT22;5625;50.122;19.864;2023-03-12T16:27:03;5.80;99.90
11142;DHT22;5625;50.122;19.864;2023-03-12T16:29:35;5.80;99.90
11142;DHT22;5625;50.122;19.864;2023-03-12T16:32:10;5.60;99.90
11142;DHT22;5625;50.122;19.864;2023-03-12T16:34:38;5.60;99.90
11142;DHT22;5625;50.122;19.864;2023-03-12T16:37:09;5.60;99.90
11142;DHT22;5625;50.122;19.864;2023-03-12T16:39:39;5.50;99.90
11142;DHT22;5625;50.122;19.864;2023-03-12T16:42:14;5.50;99.90
11142;DHT22;5625;50.122;19.864;2023-03-12T16:44:45;5.40;99.90
11142;DHT22;5625;50.122;19.864;2023-03-12T16:47:14;5.40;99.90
11142;DHT22;5625;50.122;19.864;2023-03-12T16:49:42;5.30;99.90
11142;DHT22;5625;50.122;19.864;2023-03-12T16:52:16;5.30;99.90
11142;DHT22;5625;50.122;19.864;2023-03-12T16:54:47;5.30;99.90
11142;DHT22;5625;50.122;19.864;2023-03-12T16:57:19;5.20;99.90
11142;DHT22;5625;50.122;19.864;2023-03-12T16:59:55;5.20;99.90
11142;DHT22;5625;50.122;19.864;2023-03-12T17:02:26;5.10;99.90
11142;DHT22;5625;50.122;19.864;2023-03-12T17:04:54;5.10;99.90
11142;DHT22;5625;50.122;19.864;2023-03-12T17:07:22;5.10;99.90
11142;DHT22;5625;50.122;19.864;2023-03-12T17:09:51;5.10;99.90
11142;DHT22;5625;50.122;19.864;2023-03-12T17:12:26;5.10;99.90
11142;DHT22;5625;50.122;19.864;2023-03-12T17:14:56;5.00;99.90
11142;DHT22;5625;50.122;19.864;2023-03-12T17:17:25;5.00;99.90
11142;DHT22;5625;50.122;19.864;2023-03-12T17:19:53;5.00;99.90
11142;DHT22;5625;50.122;19.864;2023-03-12T17:22:22;4.90;99.90
11142;DHT22;5625;50.122;19.864;2023-03-12T17:24:53;4.90;99.90
11142;DHT22;5625;50.122;19.864;2023-03-12T17:27:21;4.90;99.90
11142;DHT22;5625;50.122;19.864;2023-03-12T17:29:49;4.80;99.90
11142;DHT22;5625;50.122;19.864;2023-03-12T17:32:17;4.80;99.90
11142;DHT22;5625;50.122;19.864;2023-03-12T17:34:46;4.80;99.90
11142;DHT22;5625;50.122;19.864;2023-03-12T17:37:14;4.80;99.90
11142;DHT22;5625;50.122;19.864;2023-03-12T17:39:42;4.80;99.90
11142;DHT22;5625;50.122;19.864;2023-03-12T17:42:13;4.80;99.90
11142;DHT22;5625;50.122;19.864;2023-03-12T17:44:41;4.70;99.90
11142;DHT22;5625;50.122;19.864;2023-03-12T17:47:11;4.70;99.90
11142;DHT22;5625;50.122;19.864;2023-03-12T17:49:39;4.70;99.90
11142;DHT22;5625;50.122;19.864;2023-03-12T17:52:10;4.70;99.90
11142;DHT22;5625;50.122;19.864;2023-03-12T17:54:39;4.60;99.90
11142;DHT22;5625;50.122;19.864;2023-03-12T17:57:09;4.60;99.90
11142;DHT22;5625;50.122;19.864;2023-03-12T17:59:39;4.60;99.90
11142;DHT22;5625;50.122;19.864;2023-03-12T18:02:09;4.60;99.90
11142;DHT22;5625;50.122;19.864;2023-03-12T18:04:39;4.50;99.90
11142;DHT22;5625;50.122;19.864;2023-03-12T18:07:08;4.50;99.90
11142;DHT22;5625;50.122;19.864;2023-03-12T18:09:38;4.50;99.90
11142;DHT22;5625;50.122;19.864;2023-03-12T18:12:07;4.50;99.90
11142;DHT22;5625;50.122;19.864;2023-03-12T18:14:35;4.50;99.90
11142;DHT22;5625;50.122;19.864;2023-03-12T18:17:08;4.50;99.90
11142;DHT22;5625;50.122;19.864;2023-03-12T18:19:38;4.40;99.90
11142;DHT22;5625;50.122;19.864;2023-03-12T18:22:06;4.40;99.90
11142;DHT22;5625;50.122;19.864;2023-03-12T18:24:34;4.40;99.90
11142;DHT22;5625;50.122;19.864;2023-03-12T18:27:02;4.40;99.90
11142;DHT22;5625;50.122;19.864;2023-03-12T18:29:31;4.40;99.90
11142;DHT22;5625;50.122;19.864;2023-03-12T18:32:00;4.30;99.90
11142;DHT22;5625;50.122;19.864;2023-03-12T18:34:30;4.30;99.90
11142;DHT22;5625;50.122;19.864;2023-03-12T18:36:58;4.20;99.90
11142;DHT22;5625;50.122;19.864;2023-03-12T18:39:29;4.20;99.90
11142;DHT22;5625;50.122;19.864;2023-03-12T18:41:57;4.20;99.90
11142;DHT22;5625;50.122;19.864;2023-03-12T18:44:25;4.20;99.90
11142;DHT22;5625;50.122;19.864;2023-03-12T18:46:54;4.20;99.90
11142;DHT22;5625;50.122;19.864;2023-03-12T18:49:24;4.20;99.90
11142;DHT22;5625;50.122;19.864;2023-03-12T18:51:54;4.10;99.90
11142;DHT22;5625;50.122;19.864;2023-03-12T18:54:24;4.10;99.90
11142;DHT22;5625;50.122;19.864;2023-03-12T18:56:55;4.10;99.90
11142;DHT22;5625;50.122;19.864;2023-03-12T18:59:26;4.10;99.90
11142;DHT22;5625;50.122;19.864;2023-03-12T19:01:58;4.10;1.00
11142;DHT22;5625;50.122;19.864;2023-03-12T19:04:26;4.10;1.00
11142;DHT22;5625;50.122;19.864;2023-03-12T19:06:56;4.00;1.00
11142;DHT22;5625;50.122;19.864;2023-03-12T19:09:25;4.00;1.00
11142;DHT22;5625;50.122;19.864;2023-03-12T19:11:54;4.00;1.00
11142;DHT22;5625;50.122;19.864;2023-03-12T19:14:23;4.00;99.90
11142;DHT22;5625;50.122;19.864;2023-03-12T19:16:52;4.00;99.90
11142;DHT22;5625;50.122;19.864;2023-03-12T19:19:20;3.90;99.90
11142;DHT22;5625;50.122;19.864;2023-03-12T19:21:51;3.90;99.90
11142;DHT22;5625;50.122;19.864;2023-03-12T19:24:31;3.90;99.90
11142;DHT22;5625;50.122;19.864;2023-03-12T19:27:00;3.80;99.90
11142;DHT22;5625;50.122;19.864;2023-03-12T19:29:31;3.80;99.90
11142;DHT22;5625;50.122;19.864;2023-03-12T19:31:59;3.80;99.90